createdAt,value
2023-05-21T00:01:37.245Z,100129.19
2023-05-21T00:04:06.339Z,100122.66
2023-05-21T00:06:35.944Z,100121.28
2023-05-21T00:09:04.907Z,100118.78
2023-05-21T00:11:33.839Z,100117.16
2023-05-21T00:14:02.280Z,100117.50
2023-05-21T00:16:30.826Z,100110.75
2023-05-21T00:19:02.421Z,100117.09
2023-05-21T00:21:31.868Z,100116.72
2023-05-21T00:24:00.211Z,100121.91
2023-05-21T00:26:28.601Z,100127.84
2023-05-21T00:28:57.138Z,100116.72
2023-05-21T00:31:25.636Z,100117.44
2023-05-21T00:33:53.973Z,100103.47
2023-05-21T00:36:25.308Z,100110.38
2023-05-21T00:38:53.947Z,100120.75
2023-05-21T00:41:23.225Z,100108.94
2023-05-21T00:43:53.212Z,100103.16
2023-05-21T00:46:22.952Z,100099.53
2023-05-21T00:48:52.507Z,100110.06
2023-05-21T00:51:21.996Z,100100.75
2023-05-21T00:53:53.867Z,100101.28
2023-05-21T00:56:22.791Z,100105.84
2023-05-21T00:58:52.331Z,100096.25
2023-05-21T01:01:20.686Z,100093.38
2023-05-21T01:03:49.321Z,100092.06
2023-05-21T01:06:17.693Z,100088.84
2023-05-21T01:08:46.752Z,100080.72
2023-05-21T01:11:16.505Z,100075.84
2023-05-21T01:13:45.969Z,100075.38
2023-05-21T01:16:14.925Z,100084.19
2023-05-21T01:18:43.785Z,100077.00
2023-05-21T01:21:12.399Z,100073.78
2023-05-21T01:23:42.188Z,100082.25
2023-05-21T01:26:13.083Z,100077.97
2023-05-21T01:28:42.351Z,100076.75
2023-05-21T01:31:24.426Z,100078.31
2023-05-21T01:33:54.247Z,100077.88
2023-05-21T01:36:26.926Z,100069.31
2023-05-21T01:39:02.207Z,100068.28
2023-05-21T01:41:34.666Z,100067.75
2023-05-21T01:44:04.990Z,100059.88
2023-05-21T01:46:36.282Z,100053.78
2023-05-21T01:49:06.467Z,100047.97
2023-05-21T01:51:35.523Z,100052.31
2023-05-21T01:54:05.451Z,100043.69
2023-05-21T01:56:34.025Z,100045.44
2023-05-21T01:59:02.446Z,100038.31
2023-05-21T02:01:31.253Z,100038.66
2023-05-21T02:03:59.778Z,100033.31
2023-05-21T02:06:28.339Z,100038.03
2023-05-21T02:08:56.820Z,100034.53
2023-05-21T02:11:27.002Z,100032.19
2023-05-21T02:13:57.489Z,100032.72
2023-05-21T02:16:27.122Z,100037.16
2023-05-21T02:18:57.617Z,100033.84
2023-05-21T02:21:26.100Z,100027.56
2023-05-21T02:23:54.650Z,100029.91
2023-05-21T02:26:23.275Z,100030.03
2023-05-21T02:28:52.986Z,100036.91
2023-05-21T02:31:21.511Z,100032.28
2023-05-21T02:33:49.883Z,100027.56
2023-05-21T02:36:19.017Z,100036.53
2023-05-21T02:38:47.902Z,100025.31
2023-05-21T02:41:16.328Z,100029.75
2023-05-21T02:43:44.586Z,100021.56
2023-05-21T02:46:14.516Z,100035.59
2023-05-21T02:48:43.104Z,100032.03
2023-05-21T02:51:11.643Z,100027.84
2023-05-21T02:53:40.756Z,100019.75
2023-05-21T02:56:09.269Z,100021.09
2023-05-21T02:58:37.805Z,100023.91
2023-05-21T03:01:06.267Z,100020.59
2023-05-21T03:03:36.159Z,100027.72
2023-05-21T03:06:05.133Z,100018.97
2023-05-21T03:08:33.490Z,100013.50
2023-05-21T03:11:01.825Z,100011.88
2023-05-21T03:13:30.323Z,100011.03
2023-05-21T03:15:58.838Z,100015.31
2023-05-21T03:18:27.165Z,100014.44
2023-05-21T03:20:58.923Z,100011.13
2023-05-21T03:23:28.214Z,100015.94
2023-05-21T03:25:56.733Z,100023.94
2023-05-21T03:28:25.010Z,100032.78
2023-05-21T03:30:53.697Z,100037.44
2023-05-21T03:33:22.215Z,100030.72
2023-05-21T03:35:50.907Z,100021.19
2023-05-21T03:38:20.634Z,100016.75
2023-05-21T03:40:49.059Z,100026.84
2023-05-21T03:43:17.459Z,100029.03
2023-05-21T03:45:45.818Z,100040.03
2023-05-21T03:48:14.316Z,100033.94
2023-05-21T03:50:43.486Z,100029.75
2023-05-21T03:53:12.623Z,100031.81
2023-05-21T03:55:42.682Z,100044.69
2023-05-21T03:58:11.139Z,100029.72
2023-05-21T04:00:39.629Z,100042.75
2023-05-21T04:03:08.134Z,100032.16
2023-05-21T04:05:36.718Z,100046.06
2023-05-21T04:08:05.355Z,100037.78
2023-05-21T04:10:33.877Z,100047.28
2023-05-21T04:13:03.728Z,100038.72
2023-05-21T04:15:32.647Z,100037.81
2023-05-21T04:18:01.038Z,100025.91
2023-05-21T04:20:29.654Z,100031.84
2023-05-21T04:22:58.104Z,100045.75
2023-05-21T04:25:26.578Z,100038.03
2023-05-21T04:27:54.896Z,100028.88
2023-05-21T04:30:25.285Z,100050.53
2023-05-21T04:32:55.042Z,100043.28
2023-05-21T04:35:23.622Z,100035.19
2023-05-21T04:37:52.216Z,100030.66
2023-05-21T04:40:24.445Z,100027.94
2023-05-21T04:42:52.781Z,100025.59
2023-05-21T04:45:21.296Z,100034.09
2023-05-21T04:47:52.444Z,100026.34
2023-05-21T04:50:20.765Z,100021.34
2023-05-21T04:52:49.156Z,100022.88
2023-05-21T04:55:19.212Z,100034.88
2023-05-21T04:57:47.564Z,100025.50
2023-05-21T05:00:16.584Z,100033.16
2023-05-21T05:02:45.524Z,100029.47
2023-05-21T05:05:15.440Z,100029.09
2023-05-21T05:07:44.027Z,100037.63
2023-05-21T05:10:12.537Z,100037.69
2023-05-21T05:12:40.837Z,100036.91
2023-05-21T05:15:10.396Z,100040.75
2023-05-21T05:17:39.884Z,100041.22
2023-05-21T05:20:10.086Z,100042.72
2023-05-21T05:22:40.017Z,100039.63
2023-05-21T05:25:08.821Z,100045.41
2023-05-21T05:27:38.472Z,100052.06
2023-05-21T05:30:08.552Z,100036.50
2023-05-21T05:32:37.098Z,100034.59
2023-05-21T05:35:06.150Z,100033.81
2023-05-21T05:37:34.870Z,100035.75
2023-05-21T05:40:05.944Z,100033.03
2023-05-21T05:42:34.249Z,100031.06
2023-05-21T05:45:02.581Z,100040.81
2023-05-21T05:47:31.555Z,100043.13
2023-05-21T05:49:59.848Z,100056.28
2023-05-21T05:52:28.159Z,100041.56
2023-05-21T05:54:56.654Z,100036.88
2023-05-21T05:57:26.525Z,100046.28
2023-05-21T05:59:54.778Z,100031.47
2023-05-21T06:02:23.153Z,100035.72
2023-05-21T06:04:52.014Z,100043.88
2023-05-21T06:07:20.343Z,100022.91
2023-05-21T06:09:48.693Z,100034.09
2023-05-21T06:12:17.164Z,100029.59
2023-05-21T06:14:49.100Z,100028.44
2023-05-21T06:17:17.391Z,100028.13
2023-05-21T06:19:46.182Z,100040.66
2023-05-21T06:22:14.472Z,100031.03
2023-05-21T06:24:42.783Z,100036.84
2023-05-21T06:27:11.107Z,100042.63
2023-05-21T06:29:40.919Z,100036.50
2023-05-21T06:32:11.005Z,100031.00
2023-05-21T06:34:39.408Z,100030.22
2023-05-21T06:37:07.733Z,100023.66
2023-05-21T06:39:36.075Z,100030.56
2023-05-21T06:42:04.530Z,100027.53
2023-05-21T06:44:32.845Z,100027.00
2023-05-21T06:47:01.571Z,100033.25
2023-05-21T06:49:31.325Z,100029.56
2023-05-21T06:52:01.716Z,100020.25
2023-05-21T06:54:29.958Z,100015.59
2023-05-21T06:56:58.239Z,100017.94
2023-05-21T06:59:26.708Z,100023.19
2023-05-21T07:01:55.232Z,100022.75
2023-05-21T07:04:23.566Z,100028.16
2023-05-21T07:06:53.684Z,100042.88
2023-05-21T07:09:22.101Z,100021.59
2023-05-21T07:11:50.403Z,100030.38
2023-05-21T07:14:19.138Z,100021.63
2023-05-21T07:16:48.272Z,100028.66
2023-05-21T07:19:17.128Z,100054.03
2023-05-21T07:21:47.554Z,100026.84
2023-05-21T07:24:17.249Z,100027.06
2023-05-21T07:26:45.607Z,100023.31
2023-05-21T07:29:14.050Z,100022.31
2023-05-21T07:31:42.454Z,100018.91
2023-05-21T07:34:10.838Z,100026.38
2023-05-21T07:36:39.311Z,100027.09
2023-05-21T07:39:07.896Z,100020.53
2023-05-21T07:41:37.655Z,100021.56
2023-05-21T07:44:06.315Z,100023.34
2023-05-21T07:46:34.919Z,100052.88
2023-05-21T07:49:03.275Z,100030.63
2023-05-21T07:51:31.795Z,100038.63
2023-05-21T07:54:00.248Z,100030.41
2023-05-21T07:56:29.574Z,100037.66
2023-05-21T07:58:59.289Z,100034.09
2023-05-21T08:01:29.689Z,100025.25
2023-05-21T08:04:00.924Z,100049.25
2023-05-21T08:06:29.441Z,100036.13
2023-05-21T08:08:57.830Z,100068.00
2023-05-21T08:11:27.267Z,100040.16
2023-05-21T08:13:55.648Z,100038.13
2023-05-21T08:16:25.656Z,100040.22
2023-05-21T08:18:54.104Z,100047.47
2023-05-21T08:21:22.861Z,100049.91
2023-05-21T08:23:54.107Z,100036.81
2023-05-21T08:26:22.447Z,100034.44
2023-05-21T08:28:51.456Z,100071.97
2023-05-21T08:31:20.095Z,100044.56
2023-05-21T08:33:53.678Z,100055.38
2023-05-21T08:36:22.793Z,100042.09
2023-05-21T08:38:51.104Z,100038.66
2023-05-21T08:41:23.131Z,100053.63
2023-05-21T08:43:57.145Z,100045.66
2023-05-21T08:46:26.103Z,100054.53
2023-05-21T08:48:57.198Z,100044.72
2023-05-21T08:51:25.630Z,100046.59
2023-05-21T08:53:54.611Z,100059.56
2023-05-21T08:56:24.859Z,100049.81
2023-05-21T08:58:53.700Z,100065.94
2023-05-21T09:01:25.734Z,100067.72
2023-05-21T09:04:05.090Z,100057.72
2023-05-21T09:06:42.109Z,100057.22
2023-05-21T09:09:17.458Z,100076.53
2023-05-21T09:11:47.603Z,100088.06
2023-05-21T09:14:16.935Z,100077.53
2023-05-21T09:16:48.455Z,100086.25
2023-05-21T09:19:18.337Z,100075.41
2023-05-21T09:21:46.664Z,100081.41
2023-05-21T09:24:16.302Z,100081.94
2023-05-21T09:26:45.306Z,100077.53
2023-05-21T09:29:14.871Z,100093.41
2023-05-21T09:31:45.265Z,100076.31
2023-05-21T09:34:15.291Z,100081.59
2023-05-21T09:36:45.093Z,100072.00
2023-05-21T09:39:16.681Z,100085.78
2023-05-21T09:41:45.086Z,100090.50
2023-05-21T09:44:13.733Z,100078.88
2023-05-21T09:46:42.599Z,100065.59
2023-05-21T09:49:25.030Z,100078.56
2023-05-21T09:51:58.328Z,100083.28
2023-05-21T09:54:32.101Z,100080.31
2023-05-21T09:57:02.566Z,100078.09
2023-05-21T09:59:37.889Z,100070.88
2023-05-21T10:02:18.315Z,100087.34
2023-05-21T10:04:50.274Z,100093.94
2023-05-21T10:07:21.818Z,100085.09
2023-05-21T10:09:51.145Z,100070.53
2023-05-21T10:12:20.954Z,100081.16
2023-05-21T10:14:53.577Z,100062.53
2023-05-21T10:17:23.438Z,100070.66
2023-05-21T10:19:54.127Z,100063.69
2023-05-21T10:22:24.602Z,100078.03
2023-05-21T10:24:54.077Z,100067.59
2023-05-21T10:27:24.034Z,100083.13
2023-05-21T10:29:55.200Z,100074.63
2023-05-21T10:32:24.352Z,100066.41
2023-05-21T10:34:55.146Z,100083.59
2023-05-21T10:37:26.790Z,100077.28
2023-05-21T10:39:55.820Z,100072.47
2023-05-21T10:42:43.970Z,100075.69
2023-05-21T10:45:23.622Z,100083.03
2023-05-21T10:48:24.529Z,100080.91
2023-05-21T10:51:09.352Z,100080.31
2023-05-21T10:53:54.905Z,100090.28
2023-05-21T10:56:26.695Z,100078.19
2023-05-21T10:59:23.226Z,100082.41
2023-05-21T11:01:53.243Z,100079.94
2023-05-21T11:04:27.553Z,100071.41
2023-05-21T11:06:56.449Z,100079.72
2023-05-21T11:09:26.279Z,100079.19
2023-05-21T11:11:59.345Z,100079.16
2023-05-21T11:14:35.284Z,100083.69
2023-05-21T11:17:05.063Z,100082.66
2023-05-21T11:19:38.312Z,100076.59
2023-05-21T11:22:09.228Z,100081.88
2023-05-21T11:24:42.699Z,100066.81
2023-05-21T11:27:12.591Z,100067.22
2023-05-21T11:29:42.804Z,100063.72
2023-05-21T11:32:13.100Z,100076.19
2023-05-21T11:34:47.507Z,100066.53
2023-05-21T11:37:46.190Z,100069.19
2023-05-21T11:40:37.024Z,100084.84
2023-05-21T11:43:07.037Z,100076.69
2023-05-21T11:45:36.556Z,100071.13
2023-05-21T11:48:06.335Z,100071.13
2023-05-21T11:50:35.993Z,100084.19
2023-05-21T11:53:04.777Z,100077.28
2023-05-21T11:55:33.258Z,100079.63
2023-05-21T11:58:04.227Z,100078.94
2023-05-21T12:00:34.306Z,100078.19
2023-05-21T12:03:02.921Z,100077.78
2023-05-21T12:05:31.473Z,100068.84
2023-05-21T12:07:59.841Z,100078.22
2023-05-21T12:10:28.158Z,100080.94
2023-05-21T12:12:57.516Z,100076.31
2023-05-21T12:15:28.686Z,100075.88
2023-05-21T12:17:58.022Z,100078.22
2023-05-21T12:20:29.173Z,100089.03
2023-05-21T12:22:59.410Z,100067.19
2023-05-21T12:25:28.629Z,100081.59
2023-05-21T12:27:58.771Z,100064.09
2023-05-21T12:30:29.590Z,100073.09
2023-05-21T12:33:00.567Z,100068.44
2023-05-21T12:35:29.072Z,100067.59
2023-05-21T12:37:57.882Z,100063.38
2023-05-21T12:40:36.706Z,100059.16
2023-05-21T12:43:05.559Z,100058.72
2023-05-21T12:45:36.795Z,100050.44
2023-05-21T12:48:05.490Z,100057.34
2023-05-21T12:50:35.859Z,100062.06
2023-05-21T12:53:04.546Z,100074.47
2023-05-21T12:55:33.089Z,100055.31
2023-05-21T12:58:08.297Z,100055.44
2023-05-21T13:00:39.003Z,100052.75
2023-05-21T13:03:07.684Z,100048.19
2023-05-21T13:05:36.110Z,100045.06
2023-05-21T13:08:04.587Z,100049.78
2023-05-21T13:10:32.960Z,100050.16
2023-05-21T13:13:01.853Z,100043.13
2023-05-21T13:15:30.412Z,100066.53
2023-05-21T13:18:01.593Z,100044.31
2023-05-21T13:20:30.304Z,100055.22
2023-05-21T13:22:59.040Z,100043.16
2023-05-21T13:25:29.841Z,100060.31
2023-05-21T13:27:59.266Z,100040.81
2023-05-21T13:30:27.596Z,100049.38
2023-05-21T13:32:56.584Z,100043.41
2023-05-21T13:35:26.472Z,100040.78
2023-05-21T13:37:55.086Z,100035.75
2023-05-21T13:40:23.916Z,100027.56
2023-05-21T13:42:52.452Z,100036.13
2023-05-21T13:45:24.447Z,100048.91
2023-05-21T13:47:52.939Z,100032.59
2023-05-21T13:50:21.263Z,100029.13
2023-05-21T13:52:51.020Z,100031.84
2023-05-21T13:55:19.282Z,100025.22
2023-05-21T13:57:47.724Z,100026.78
2023-05-21T14:00:16.736Z,100025.59
2023-05-21T14:02:45.997Z,100034.22
2023-05-21T14:05:14.824Z,100016.66
2023-05-21T14:07:43.696Z,100015.88
2023-05-21T14:10:13.542Z,100028.34
2023-05-21T14:12:42.199Z,100020.53
2023-05-21T14:15:12.111Z,100016.66
2023-05-21T14:17:42.520Z,100021.69
2023-05-21T14:20:11.668Z,100050.50
2023-05-21T14:22:40.576Z,100014.69
2023-05-21T14:25:09.844Z,100018.94
2023-05-21T14:27:39.580Z,100014.63
2023-05-21T14:30:09.934Z,100018.84
2023-05-21T14:32:38.327Z,100011.94
2023-05-21T14:35:07.446Z,100015.03
2023-05-21T14:37:35.882Z,100006.03
2023-05-21T14:40:05.603Z,100000.94
2023-05-21T14:42:34.059Z,100025.94
2023-05-21T14:45:18.059Z,100002.59
2023-05-21T14:47:48.951Z,100003.38
2023-05-21T14:50:18.533Z,100006.47
2023-05-21T14:52:47.565Z,100009.53
2023-05-21T14:55:16.978Z,100006.31
2023-05-21T14:57:45.577Z,100007.91
2023-05-21T15:00:17.223Z,99998.97
2023-05-21T15:02:45.618Z,99989.22
2023-05-21T15:05:14.191Z,99997.41
2023-05-21T15:07:42.459Z,99990.06
2023-05-21T15:10:11.612Z,99991.63
2023-05-21T15:12:41.064Z,99986.56
2023-05-21T15:15:10.635Z,99986.66
2023-05-21T15:17:40.588Z,99988.97
2023-05-21T15:20:09.844Z,99984.25
2023-05-21T15:22:38.631Z,99984.28
2023-05-21T15:25:07.725Z,99982.66
2023-05-21T15:27:36.153Z,100000.94
2023-05-21T15:30:04.860Z,99992.03
2023-05-21T15:32:33.222Z,99983.41
2023-05-21T15:35:03.283Z,100000.94
2023-05-21T15:37:33.214Z,99993.16
2023-05-21T15:40:03.174Z,99980.25
2023-05-21T15:42:31.972Z,99996.59
2023-05-21T15:45:00.592Z,99986.09
2023-05-21T15:47:29.007Z,99985.28
2023-05-21T15:49:58.916Z,99986.09
2023-05-21T15:52:28.755Z,99991.06
2023-05-21T15:54:57.143Z,99992.22
2023-05-21T15:57:25.417Z,99988.31
2023-05-21T15:59:53.788Z,99985.97
2023-05-21T16:02:22.108Z,99984.72
2023-05-21T16:04:52.251Z,99985.22
2023-05-21T16:07:21.239Z,99985.25
2023-05-21T16:09:50.947Z,99993.78
2023-05-21T16:12:19.348Z,99980.56
2023-05-21T16:14:49.990Z,99981.28
2023-05-21T16:17:18.394Z,99981.28
2023-05-21T16:19:47.763Z,99977.03
2023-05-21T16:22:16.278Z,99972.31
2023-05-21T16:24:44.608Z,99977.34
2023-05-21T16:27:14.544Z,99986.69
2023-05-21T16:29:43.106Z,99971.97
2023-05-21T16:32:13.975Z,99982.06
2023-05-21T16:34:42.596Z,99975.81
2023-05-21T16:37:11.224Z,99983.97
2023-05-21T16:39:39.634Z,99975.75
2023-05-21T16:42:08.031Z,99973.81
2023-05-21T16:44:39.374Z,99980.28
2023-05-21T16:47:08.570Z,99975.94
2023-05-21T16:49:37.096Z,99984.84
2023-05-21T16:52:05.678Z,99985.16
2023-05-21T16:54:35.070Z,99990.09
2023-05-21T16:57:03.488Z,99992.94
2023-05-21T16:59:31.802Z,99987.47
2023-05-21T17:02:01.786Z,99986.97
2023-05-21T17:04:30.612Z,99991.97
2023-05-21T17:06:58.946Z,99987.63
2023-05-21T17:09:27.265Z,99989.06
2023-05-21T17:11:55.629Z,99982.81
2023-05-21T17:14:33.909Z,99987.00
2023-05-21T17:17:04.706Z,99995.72
2023-05-21T17:19:33.084Z,99995.63
2023-05-21T17:22:01.758Z,100004.94
2023-05-21T17:24:30.244Z,99997.06
2023-05-21T17:26:58.614Z,99998.53
2023-05-21T17:29:27.056Z,99998.19
2023-05-21T17:31:55.636Z,99996.13
2023-05-21T17:34:29.700Z,100003.09
2023-05-21T17:36:59.225Z,100012.91
2023-05-21T17:39:27.487Z,100015.09
2023-05-21T17:41:57.399Z,100016.25
2023-05-21T17:44:25.753Z,100024.25
2023-05-21T17:46:54.228Z,100019.88
2023-05-21T17:49:22.832Z,100024.53
2023-05-21T17:51:52.669Z,100032.41
2023-05-21T17:54:21.443Z,100028.84
2023-05-21T17:56:49.787Z,100037.72
2023-05-21T17:59:18.249Z,100033.16
2023-05-21T18:01:46.515Z,100023.66
2023-05-21T18:04:14.868Z,100037.19
2023-05-21T18:06:44.295Z,100034.25
2023-05-21T18:09:15.611Z,100033.66
2023-05-21T18:11:44.945Z,100039.31
2023-05-21T18:14:13.347Z,100042.69
2023-05-21T18:16:42.102Z,100043.16
2023-05-21T18:19:10.465Z,100046.25
2023-05-21T18:21:39.321Z,100047.69
2023-05-21T18:24:08.399Z,100054.38
2023-05-21T18:26:38.198Z,100049.38
2023-05-21T18:29:06.672Z,100062.50
2023-05-21T18:31:35.076Z,100062.50
2023-05-21T18:34:03.419Z,100063.13
2023-05-21T18:36:38.642Z,100069.16
2023-05-21T18:39:07.784Z,100069.91
2023-05-21T18:41:37.739Z,100072.94
2023-05-21T18:44:06.504Z,100072.50
2023-05-21T18:46:35.016Z,100067.97
2023-05-21T18:49:03.445Z,100070.75
2023-05-21T18:51:31.781Z,100068.78
2023-05-21T18:54:00.040Z,100076.47
2023-05-21T18:56:28.584Z,100071.53
2023-05-21T18:58:58.509Z,100069.06
2023-05-21T19:01:27.024Z,100077.28
2023-05-21T19:03:55.403Z,100076.91
2023-05-21T19:06:25.727Z,100080.47
2023-05-21T19:08:54.032Z,100077.41
2023-05-21T19:11:23.634Z,100082.09
2023-05-21T19:13:52.186Z,100073.13
2023-05-21T19:16:21.909Z,100081.38
2023-05-21T19:18:50.495Z,100084.47
2023-05-21T19:21:19.169Z,100078.34
2023-05-21T19:23:53.369Z,100074.94
2023-05-21T19:26:23.541Z,100078.09
2023-05-21T19:28:53.819Z,100077.66
2023-05-21T19:31:25.409Z,100090.28
2023-05-21T19:33:54.328Z,100082.88
2023-05-21T19:36:23.276Z,100078.69
2023-05-21T19:38:52.176Z,100078.91
2023-05-21T19:41:21.670Z,100083.63
2023-05-21T19:43:50.051Z,100075.97
2023-05-21T19:46:20.492Z,100081.72
2023-05-21T19:48:52.702Z,100074.78
2023-05-21T19:51:21.103Z,100084.47
2023-05-21T19:53:49.516Z,100084.88
2023-05-21T19:56:18.108Z,100082.97
2023-05-21T19:58:48.128Z,100094.28
2023-05-21T20:01:18.016Z,100090.84
2023-05-21T20:03:46.654Z,100083.91
2023-05-21T20:06:19.172Z,100088.94
2023-05-21T20:08:47.843Z,100099.25
2023-05-21T20:11:16.271Z,100096.06
2023-05-21T20:13:48.592Z,100104.69
2023-05-21T20:16:18.441Z,100095.56
2023-05-21T20:18:47.430Z,100100.72
2023-05-21T20:21:18.602Z,100097.31
2023-05-21T20:23:47.279Z,100089.50
2023-05-21T20:26:16.289Z,100098.34
2023-05-21T20:28:44.783Z,100088.66
2023-05-21T20:31:13.466Z,100098.34
2023-05-21T20:33:42.100Z,100088.28
2023-05-21T20:36:11.215Z,100079.84
2023-05-21T20:38:42.241Z,100085.97
2023-05-21T20:41:10.689Z,100071.16
2023-05-21T20:43:39.216Z,100084.31
2023-05-21T20:46:07.976Z,100076.97
2023-05-21T20:48:37.866Z,100080.41
2023-05-21T20:51:06.930Z,100077.31
2023-05-21T20:53:35.265Z,100072.50
2023-05-21T20:56:08.652Z,100077.16
2023-05-21T20:58:36.962Z,100076.53
2023-05-21T21:01:05.274Z,100071.72
2023-05-21T21:03:35.264Z,100076.31
2023-05-21T21:06:04.465Z,100086.41
2023-05-21T21:08:34.740Z,100074.28
2023-05-21T21:11:04.586Z,100079.44
2023-05-21T21:13:33.041Z,100078.59
2023-05-21T21:16:01.418Z,100074.03
2023-05-21T21:18:29.781Z,100079.88
2023-05-21T21:20:58.362Z,100069.78
2023-05-21T21:23:29.210Z,100069.78
2023-05-21T21:25:57.685Z,100070.16
2023-05-21T21:28:27.616Z,100062.09
2023-05-21T21:30:55.948Z,100076.84
2023-05-21T21:33:26.741Z,100076.31
2023-05-21T21:35:55.291Z,100078.97
2023-05-21T21:38:23.773Z,100074.63
2023-05-21T21:40:52.084Z,100074.88
2023-05-21T21:43:20.391Z,100069.03
2023-05-21T21:45:50.176Z,100074.88
2023-05-21T21:48:18.578Z,100063.41
2023-05-21T21:50:47.344Z,100062.63
2023-05-21T21:53:15.730Z,100070.25
2023-05-21T21:55:44.074Z,100074.78
2023-05-21T21:58:12.790Z,100071.78
2023-05-21T22:00:41.850Z,100076.66
2023-05-21T22:03:14.447Z,100076.19
2023-05-21T22:05:43.143Z,100071.50
2023-05-21T22:08:11.749Z,100083.19
2023-05-21T22:10:40.512Z,100083.00
2023-05-21T22:13:09.273Z,100085.22
2023-05-21T22:15:37.770Z,100088.19
2023-05-21T22:18:06.505Z,100092.72
2023-05-21T22:20:38.472Z,100096.56
2023-05-21T22:23:07.457Z,100096.41
2023-05-21T22:25:36.188Z,100092.59
2023-05-21T22:28:04.621Z,100103.47
2023-05-21T22:30:32.980Z,100096.56
2023-05-21T22:33:01.766Z,100095.28
2023-05-21T22:35:30.083Z,100092.06
2023-05-21T22:37:59.923Z,100093.22
2023-05-21T22:40:28.398Z,100090.38
2023-05-21T22:42:57.095Z,100084.53
2023-05-21T22:45:26.526Z,100086.75
2023-05-21T22:47:56.831Z,100090.56
2023-05-21T22:50:29.211Z,100088.03
2023-05-21T22:52:57.710Z,100079.41
2023-05-21T22:55:27.480Z,100073.47
2023-05-21T22:57:55.945Z,100071.47
2023-05-21T23:00:24.645Z,100075.75
2023-05-21T23:02:54.535Z,100075.34
2023-05-21T23:05:23.485Z,100090.28
2023-05-21T23:07:52.075Z,100085.56
2023-05-21T23:10:20.611Z,100088.53
2023-05-21T23:12:50.411Z,100087.56
2023-05-21T23:15:19.128Z,100091.53
2023-05-21T23:17:47.657Z,100091.38
2023-05-21T23:20:16.449Z,100092.69
2023-05-21T23:22:44.757Z,100085.78
2023-05-21T23:25:13.017Z,100082.47
2023-05-21T23:27:41.558Z,100093.38
2023-05-21T23:30:12.714Z,100092.06
2023-05-21T23:32:41.095Z,100092.84
2023-05-21T23:35:10.547Z,100095.66
2023-05-21T23:37:39.117Z,100099.84
2023-05-21T23:40:09.424Z,100099.34
2023-05-21T23:42:37.844Z,100099.34
2023-05-21T23:45:06.841Z,100093.06
2023-05-21T23:47:36.633Z,100096.88
2023-05-21T23:50:05.513Z,100095.31
2023-05-21T23:52:33.876Z,100083.16
2023-05-21T23:55:02.274Z,100086.22
2023-05-21T23:57:30.667Z,100089.72
2023-05-21T23:59:59.022Z,100091.28
